Time;durP1;ratioP1;P1;durP2;ratioP2;P2;SDS_P1;SDS_P2;PMS_P1;PMS_P2;Temp;Humidity;BMP_temperature;BMP_pressure;BME280_temperature;BME280_humidity;BME280_pressure;Samples;Min_cycle;Max_cycle;Signal;HPM_P1;HPM_P2
2021/01/09 00:02:08;;;;;;;5.85;2.35;;;1.50;87.20;;;;;;5045983;28;80992;-72
2021/01/09 00:04:34;;;;;;;5.57;2.10;;;1.40;87.20;;;;;;5045929;28;81716;-66
2021/01/09 00:07:00;;;;;;;6.55;2.25;;;1.50;87.20;;;;;;5045808;28;80751;-76
2021/01/09 00:09:25;;;;;;;4.43;1.95;;;1.50;87.10;;;;;;5045912;28;82522;-66
2021/01/09 00:11:51;;;;;;;4.82;2.25;;;1.50;87.10;;;;;;5045615;28;80691;-78
2021/01/09 00:14:19;;;;;;;6.03;2.35;;;1.50;87.10;;;;;;5045655;28;82436;-77
2021/01/09 00:16:51;;;;;;;4.82;2.50;;;1.50;87.00;;;;;;5045837;28;79966;-69
2021/01/09 00:19:17;;;;;;;6.95;1.65;;;1.50;87.10;;;;;;5047737;28;79754;-70
2021/01/09 00:21:43;;;;;;;4.22;2.00;;;1.50;87.00;;;;;;5046960;28;80904;-75
2021/01/09 00:24:12;;;;;;;4.35;1.85;;;1.40;86.70;;;;;;5047309;28;80764;-67
2021/01/09 00:26:37;;;;;;;4.57;2.05;;;1.40;86.90;;;;;;5046886;28;79765;-76
2021/01/09 00:29:06;;;;;;;4.95;2.20;;;1.40;87.00;;;;;;5047534;28;79808;-76
2021/01/09 00:31:33;;;;;;;8.23;2.50;;;1.40;87.10;;;;;;5047036;28;80374;-84
2021/01/09 00:33:59;;;;;;;3.75;1.80;;;1.30;87.10;;;;;;5045574;28;80508;-83
2021/01/09 00:36:25;;;;;;;5.78;2.40;;;1.40;87.20;;;;;;5044840;28;83025;-81
2021/01/09 00:38:51;;;;;;;5.65;2.25;;;1.40;87.10;;;;;;5046591;28;79876;-67
2021/01/09 00:41:26;;;;;;;4.70;2.17;;;1.30;87.20;;;;;;5045652;28;79914;-80
2021/01/09 00:43:51;;;;;;;4.45;2.00;;;1.40;87.20;;;;;;5045314;28;80417;-82
2021/01/09 00:46:17;;;;;;;5.03;1.83;;;1.30;87.20;;;;;;5045336;28;80547;-78
2021/01/09 00:48:43;;;;;;;5.00;2.28;;;1.30;87.20;;;;;;5046658;28;80166;-80
2021/01/09 00:51:16;;;;;;;5.70;1.90;;;1.20;87.00;;;;;;5046834;28;81068;-81
2021/01/09 00:53:42;;;;;;;4.57;2.10;;;1.20;87.20;;;;;;5046868;28;79901;-77
2021/01/09 00:56:08;;;;;;;5.50;2.15;;;1.20;87.10;;;;;;5046524;28;80656;-68
2021/01/09 00:58:34;;;;;;;4.10;1.85;;;1.10;87.30;;;;;;5046757;28;80289;-72
2021/01/09 01:01:01;;;;;;;7.65;2.20;;;1.20;87.30;;;;;;5045088;28;81839;-72
2021/01/09 01:03:27;;;;;;;4.13;2.08;;;1.20;87.30;;;;;;5045160;28;82535;-68
2021/01/09 01:05:53;;;;;;;4.43;2.22;;;1.10;87.30;;;;;;5044836;27;80449;-70
2021/01/09 01:08:19;;;;;;;4.20;2.17;;;1.10;87.30;;;;;;5045175;28;79849;-70
2021/01/09 01:10:46;;;;;;;5.80;1.85;;;1.10;87.30;;;;;;5046765;28;80572;-69
2021/01/09 01:13:12;;;;;;;4.53;2.20;;;1.10;87.40;;;;;;5044706;28;80371;-71
2021/01/09 01:15:38;;;;;;;9.57;2.08;;;1.10;87.50;;;;;;5046607;28;79841;-71
2021/01/09 01:18:04;;;;;;;6.85;3.38;;;1.10;87.40;;;;;;5046350;28;79847;-67
2021/01/09 01:20:29;;;;;;;5.32;2.53;;;1.00;87.20;;;;;;5044911;28;81401;-68
2021/01/09 01:22:55;;;;;;;4.60;2.20;;;1.00;87.30;;;;;;5044666;28;79972;-68
2021/01/09 01:25:21;;;;;;;4.85;2.22;;;1.00;87.30;;;;;;5046919;28;80240;-68
2021/01/09 01:27:47;;;;;;;5.32;1.88;;;0.90;87.40;;;;;;5046508;28;80111;-70
2021/01/09 01:30:13;;;;;;;3.70;1.70;;;0.90;87.40;;;;;;5046114;28;80499;-71
2021/01/09 01:32:38;;;;;;;5.40;1.75;;;0.90;87.60;;;;;;5044772;28;83131;-68
2021/01/09 01:35:05;;;;;;;4.28;2.30;;;1.00;87.60;;;;;;5044521;28;83333;-65
2021/01/09 01:37:31;;;;;;;4.22;2.10;;;1.00;87.50;;;;;;5046006;28;80873;-68
2021/01/09 01:39:56;;;;;;;6.35;2.40;;;0.90;87.50;;;;;;5044518;28;82664;-69
2021/01/09 01:42:22;;;;;;;4.40;1.95;;;0.90;87.50;;;;;;5045593;27;80291;-68
2021/01/09 01:44:48;;;;;;;4.35;2.20;;;0.90;87.60;;;;;;5044553;28;81083;-70
2021/01/09 01:47:20;;;;;;;4.68;2.25;;;0.90;87.60;;;;;;5045960;28;80456;-64
2021/01/09 01:49:46;;;;;;;6.32;2.13;;;0.80;87.70;;;;;;5047376;27;81182;-69
2021/01/09 01:52:16;;;;;;;3.38;1.75;;;0.80;87.80;;;;;;5047415;28;82172;-68
2021/01/09 01:54:47;;;;;;;5.57;2.10;;;0.80;87.80;;;;;;5047730;28;80779;-68
2021/01/09 01:57:13;;;;;;;6.57;2.33;;;0.80;87.90;;;;;;5049284;28;80286;-65
2021/01/09 01:59:40;;;;;;;5.07;1.77;;;0.80;87.80;;;;;;5047747;28;83385;-65
2021/01/09 02:02:11;;;;;;;4.55;1.70;;;0.80;88.00;;;;;;5049401;28;80138;-68
2021/01/09 02:04:37;;;;;;;5.28;1.60;;;0.80;87.90;;;;;;5049407;28;79949;-75
2021/01/09 02:07:11;;;;;;;4.15;1.95;;;0.80;88.10;;;;;;5049348;28;80370;-78
2021/01/09 02:09:41;;;;;;;4.78;1.80;;;0.80;88.10;;;;;;5047664;28;83877;-69
2021/01/09 02:12:16;;;;;;;4.80;1.63;;;0.90;88.10;;;;;;5049152;28;79702;-67
2021/01/09 02:14:44;;;;;;;5.03;2.10;;;0.90;88.10;;;;;;5049037;28;80835;-80
2021/01/09 02:17:11;;;;;;;5.25;1.83;;;0.80;88.10;;;;;;5047753;28;83187;-72
2021/01/09 02:19:42;;;;;;;5.03;2.00;;;0.80;88.10;;;;;;5048025;28;82712;-70
2021/01/09 02:22:16;;;;;;;5.80;2.05;;;0.80;88.20;;;;;;5047510;28;82167;-67
2021/01/09 02:24:46;;;;;;;4.30;2.03;;;0.80;88.20;;;;;;5049334;28;80512;-68
2021/01/09 02:27:12;;;;;;;3.85;2.05;;;0.90;88.30;;;;;;5047260;28;81589;-66
2021/01/09 02:30:20;;;;;;;4.78;1.60;;;0.90;88.40;;;;;;5049808;28;80896;-67
2021/01/09 02:33:02;;;;;;;5.40;2.00;;;0.90;88.50;;;;;;5047454;28;80022;-67
2021/01/09 02:35:30;;;;;;;5.07;1.67;;;0.90;88.60;;;;;;5047349;28;83832;-67
2021/01/09 02:37:56;;;;;;;7.80;2.15;;;0.90;88.50;;;;;;5048820;28;80241;-66
2021/01/09 02:40:22;;;;;;;3.55;1.52;;;0.90;88.70;;;;;;5048913;28;80361;-69
2021/01/09 02:42:48;;;;;;;3.92;1.95;;;0.90;88.80;;;;;;5047333;28;83113;-69
2021/01/09 02:45:15;;;;;;;4.25;1.63;;;0.90;88.90;;;;;;5046993;28;81967;-72
2021/01/09 02:47:41;;;;;;;6.80;1.70;;;0.90;89.20;;;;;;5048763;28;79956;-69
2021/01/09 02:50:10;;;;;;;3.85;1.63;;;0.90;89.30;;;;;;5047080;28;83619;-67
2021/01/09 02:52:40;;;;;;;4.75;1.75;;;0.90;89.50;;;;;;5047197;28;83613;-70
2021/01/09 02:55:07;;;;;;;5.70;2.08;;;0.90;89.50;;;;;;5049119;28;80611;-67
2021/01/09 02:57:34;;;;;;;3.72;1.67;;;0.90;89.60;;;;;;5048509;28;80162;-73
2021/01/09 03:00:00;;;;;;;7.05;2.35;;;0.90;89.70;;;;;;5046557;27;81953;-73
2021/01/09 03:02:26;;;;;;;2.53;1.30;;;0.90;89.60;;;;;;5047110;28;81422;-71
2021/01/09 03:04:51;;;;;;;11.48;3.75;;;0.90;89.60;;;;;;5048798;28;80563;-71
2021/01/09 03:07:17;;;;;;;3.75;1.50;;;1.00;89.60;;;;;;5048516;28;80278;-69
2021/01/09 03:09:43;;;;;;;7.40;1.80;;;1.00;89.60;;;;;;5048808;28;80390;-74
2021/01/09 03:12:09;;;;;;;3.10;1.50;;;1.00;89.50;;;;;;5048068;28;80602;-72
2021/01/09 03:14:35;;;;;;;3.00;1.50;;;1.00;89.50;;;;;;5047372;28;82286;-70
2021/01/09 03:17:01;;;;;;;3.70;1.58;;;1.10;89.50;;;;;;5046870;28;81995;-69
2021/01/09 03:19:26;;;;;;;2.78;1.30;;;1.10;89.50;;;;;;5047845;28;82122;-67
2021/01/09 03:21:54;;;;;;;6.18;1.67;;;1.10;89.40;;;;;;5048121;28;80082;-67
2021/01/09 03:24:20;;;;;;;4.13;1.58;;;1.10;89.30;;;;;;5046057;28;83513;-66
2021/01/09 03:26:46;;;;;;;3.75;1.20;;;1.10;89.30;;;;;;5047664;27;80684;-68
2021/01/09 03:29:11;;;;;;;4.72;1.65;;;1.10;89.30;;;;;;5046815;28;80912;-66
2021/01/09 03:31:37;;;;;;;4.95;1.48;;;1.10;89.20;;;;;;5057690;28;82718;-66
2021/01/09 03:34:03;;;;;;;4.22;1.55;;;1.10;89.30;;;;;;5119452;28;20131;-66
2021/01/09 03:36:29;;;;;;;3.33;1.38;;;1.10;89.30;;;;;;5119004;28;20090;-67
2021/01/09 03:38:54;;;;;;;3.95;2.28;;;1.10;89.30;;;;;;5119742;28;20039;-67
2021/01/09 03:41:20;;;;;;;4.40;1.67;;;1.10;89.20;;;;;;5118723;28;20365;-67
2021/01/09 03:43:46;;;;;;;5.30;1.88;;;1.10;89.30;;;;;;5117666;28;20036;-67
2021/01/09 03:46:12;;;;;;;2.85;1.20;;;1.10;89.30;;;;;;5117227;28;20097;-67
2021/01/09 03:48:38;;;;;;;3.80;1.27;;;1.10;89.10;;;;;;5118520;28;20078;-67
2021/01/09 03:51:04;;;;;;;7.97;1.60;;;1.00;89.20;;;;;;5117251;28;20032;-71
2021/01/09 03:53:29;;;;;;;3.55;1.50;;;0.90;89.20;;;;;;5117114;28;20384;-66
2021/01/09 03:55:56;;;;;;;10.23;2.17;;;1.00;89.20;;;;;;5117073;28;20101;-68
2021/01/09 03:58:21;;;;;;;2.88;1.38;;;1.00;89.20;;;;;;5116672;28;20629;-67
2021/01/09 04:00:47;;;;;;;3.47;1.48;;;1.00;89.20;;;;;;5118566;28;20062;-68
2021/01/09 04:03:13;;;;;;;3.80;1.20;;;1.00;89.20;;;;;;5118759;28;20036;-67
2021/01/09 04:05:39;;;;;;;2.63;1.23;;;0.90;89.20;;;;;;5116694;28;20040;-67
2021/01/09 04:08:05;;;;;;;5.70;1.08;;;0.90;89.20;;;;;;5118708;28;20040;-68
2021/01/09 04:10:31;;;;;;;3.17;1.00;;;1.00;89.30;;;;;;5118241;28;20032;-67
2021/01/09 04:12:57;;;;;;;4.57;1.35;;;1.00;89.30;;;;;;5115537;27;20193;-67
2021/01/09 04:15:23;;;;;;;2.45;1.17;;;1.00;89.10;;;;;;5116532;28;20122;-67
2021/01/09 04:17:49;;;;;;;2.80;0.90;;;1.00;89.20;;;;;;5116429;28;20125;-71
2021/01/09 04:20:14;;;;;;;3.17;1.13;;;1.00;89.20;;;;;;5116207;28;20039;-71
2021/01/09 04:22:40;;;;;;;4.88;1.20;;;1.00;89.20;;;;;;5115987;28;20040;-71
2021/01/09 04:25:06;;;;;;;2.63;0.80;;;1.00;89.20;;;;;;5116117;28;20056;-72
2021/01/09 04:27:32;;;;;;;1.75;0.88;;;1.00;89.20;;;;;;5117894;28;20117;-71
2021/01/09 04:29:58;;;;;;;5.88;1.05;;;1.00;89.10;;;;;;5118654;28;20109;-70
2021/01/09 04:32:23;;;;;;;2.38;0.70;;;1.00;89.30;;;;;;5118084;28;20093;-72
2021/01/09 04:34:49;;;;;;;3.10;1.17;;;1.00;89.40;;;;;;5116122;28;20036;-68
2021/01/09 04:37:15;;;;;;;2.28;0.90;;;1.00;89.50;;;;;;5115964;28;20426;-69
2021/01/09 04:39:41;;;;;;;3.60;1.05;;;1.00;89.60;;;;;;5115686;28;20094;-73
2021/01/09 04:42:08;;;;;;;2.45;0.95;;;1.00;89.70;;;;;;5117566;28;20464;-70
2021/01/09 04:44:34;;;;;;;2.33;1.00;;;1.00;89.70;;;;;;5115636;28;20541;-69
2021/01/09 04:47:02;;;;;;;2.60;0.85;;;1.10;89.80;;;;;;5115595;28;20036;-67
2021/01/09 04:49:29;;;;;;;2.20;1.00;;;1.00;89.60;;;;;;5115908;28;20038;-68
2021/01/09 04:51:56;;;;;;;2.17;0.85;;;1.00;89.60;;;;;;5117124;28;20472;-70
2021/01/09 04:54:24;;;;;;;2.63;0.80;;;1.00;89.70;;;;;;5117438;28;20032;-71
2021/01/09 04:56:52;;;;;;;1.80;0.57;;;1.00;89.80;;;;;;5115373;28;20036;-69
2021/01/09 04:59:19;;;;;;;2.40;0.82;;;1.00;89.80;;;;;;5115443;28;20123;-70
2021/01/09 05:01:47;;;;;;;2.17;0.95;;;1.00;89.90;;;;;;5116823;28;20032;-68
2021/01/09 05:04:14;;;;;;;3.28;0.98;;;1.00;89.80;;;;;;5116967;28;20480;-72
2021/01/09 05:06:41;;;;;;;2.95;1.52;;;0.90;89.80;;;;;;5117220;27;20070;-72
2021/01/09 05:09:08;;;;;;;2.17;0.70;;;0.90;89.80;;;;;;5115001;28;20036;-68
2021/01/09 05:11:35;;;;;;;1.83;0.80;;;0.90;89.90;;;;;;5116889;28;20044;-68
2021/01/09 05:14:04;;;;;;;1.95;0.63;;;1.00;89.90;;;;;;5117226;28;20040;-69
2021/01/09 05:17:13;;;;;;;;;;;1.00;90.00;;;;;;2706340;28;38269016;-71
2021/01/09 05:20:49;;;;;;;8.70;1.20;;;0.90;90.00;;;;;;6;36014905;36037642;-67
2021/01/09 05:23:16;;;;;;;4.53;0.68;;;1.00;90.10;;;;;;1846516;27;38268789;-69
2021/01/09 05:25:43;;;;;;;2.03;0.87;;;0.90;90.10;;;;;;4989517;28;805356;-66
2021/01/09 05:28:09;;;;;;;3.00;1.15;;;0.90;90.10;;;;;;4194184;28;8751978;-67
2021/01/09 05:30:35;;;;;;;2.20;0.75;;;0.90;90.10;;;;;;4991565;28;861584;-67
2021/01/09 05:33:01;;;;;;;1.73;0.60;;;1.00;90.10;;;;;;4518899;28;3700073;-70
2021/01/09 05:35:30;;;;;;;1.77;0.60;;;1.00;90.00;;;;;;3845513;28;3335702;-71
2021/01/09 05:37:56;;;;;;;5.10;0.82;;;1.00;90.10;;;;;;2680710;28;25558079;-70
2021/01/09 05:40:22;;;;;;;1.20;0.50;;;0.90;90.00;;;;;;3159543;28;22728910;-67
2021/01/09 05:42:50;;;;;;;1.80;0.70;;;0.90;90.10;;;;;;3570138;28;7308259;-68
2021/01/09 05:45:18;;;;;;;4.50;0.90;;;0.90;90.20;;;;;;3569396;28;10196810;-67
2021/01/09 05:47:49;;;;;;;2.83;1.07;;;0.90;90.20;;;;;;3143703;28;18223681;-67
2021/01/09 05:50:15;;;;;;;2.13;0.82;;;0.90;90.10;;;;;;3679683;28;6628401;-68
2021/01/09 05:52:42;;;;;;;3.00;0.85;;;1.00;90.10;;;;;;3965736;28;11429969;-69
2021/01/09 05:55:08;;;;;;;2.10;0.80;;;1.00;90.10;;;;;;4828926;28;2845274;-68
2021/01/09 05:57:35;;;;;;;2.13;0.60;;;0.90;90.00;;;;;;5102347;28;280555;-69
2021/01/09 06:00:10;;;;;;;1.73;0.63;;;0.90;90.00;;;;;;4271490;28;7324003;-72
2021/01/09 06:03:20;;;;;;;2.20;0.90;;;0.90;90.00;;;;;;4001294;28;17263953;-72
2021/01/09 06:05:47;;;;;;;2.57;0.70;;;0.90;90.10;;;;;;4670006;28;2531940;-73
2021/01/09 06:08:18;;;;;;;1.75;0.80;;;1.00;90.00;;;;;;4847735;28;2133550;-74
2021/01/09 06:10:47;;;;;;;1.08;0.55;;;0.90;90.00;;;;;;4314169;28;20587837;-67
2021/01/09 06:13:14;;;;;;;1.70;0.80;;;1.00;90.00;;;;;;5039245;28;915081;-68
2021/01/09 06:15:43;;;;;;;1.88;0.63;;;1.00;90.00;;;;;;5062583;28;419194;-70
2021/01/09 06:18:10;;;;;;;1.13;0.45;;;1.00;90.00;;;;;;3617129;28;27727189;-67
2021/01/09 06:20:38;;;;;;;1.22;0.40;;;1.00;90.00;;;;;;3410322;27;6962269;-69
2021/01/09 06:23:05;;;;;;;1.63;0.40;;;1.00;90.00;;;;;;4741602;28;4143269;-67
2021/01/09 06:25:35;;;;;;;1.40;0.50;;;1.00;89.90;;;;;;4965615;28;1618644;-67
2021/01/09 06:28:08;;;;;;;1.67;0.60;;;1.00;90.00;;;;;;5066607;28;540465;-66
2021/01/09 06:30:37;;;;;;;2.83;0.73;;;1.00;89.90;;;;;;5079583;28;316827;-68
2021/01/09 06:33:03;;;;;;;1.95;0.80;;;1.00;89.90;;;;;;5079944;28;298266;-67
2021/01/09 06:35:33;;;;;;;4.50;0.60;;;1.00;90.00;;;;;;1577760;28;38267986;-68
2021/01/09 06:37:59;;;;;;;1.73;0.63;;;1.00;89.90;;;;;;4988284;28;1674930;-68
2021/01/09 06:40:25;;;;;;;2.85;0.93;;;1.00;89.90;;;;;;4154848;28;4469715;-68
2021/01/09 06:42:54;;;;;;;1.73;0.63;;;1.00;89.90;;;;;;3934997;28;7085495;-72
2021/01/09 06:45:20;;;;;;;2.38;0.65;;;1.10;89.90;;;;;;4996101;28;1148955;-66
2021/01/09 06:48:08;;;;;;;1.55;0.50;;;1.10;89.90;;;;;;4352057;28;13623794;-66
2021/01/09 06:50:34;;;;;;;1.30;0.40;;;1.10;89.90;;;;;;4922254;28;1135984;-66
2021/01/09 06:53:01;;;;;;;34.08;1.30;;;1.10;89.70;;;;;;4604252;28;7293016;-66
2021/01/09 06:55:37;;;;;;;2.00;0.70;;;1.10;89.70;;;;;;4809344;28;5883072;-67
2021/01/09 06:58:07;;;;;;;2.00;0.87;;;1.10;89.70;;;;;;4653920;28;5100463;-66
2021/01/09 07:00:33;;;;;;;1.63;0.70;;;1.00;89.70;;;;;;4124717;28;9320547;-69
2021/01/09 07:03:16;;;;;;;1.08;0.50;;;1.00;89.80;;;;;;5013777;28;879170;-66
2021/01/09 07:05:46;;;;;;;2.22;0.90;;;1.10;89.90;;;;;;5047771;28;879157;-69
2021/01/09 07:08:23;;;;;;;1.25;0.60;;;1.10;89.90;;;;;;4990796;28;2894633;-67
2021/01/09 07:10:59;;;;;;;1.67;0.68;;;1.10;89.90;;;;;;5010859;28;1155002;-68
2021/01/09 07:13:27;;;;;;;1.50;0.45;;;1.10;89.90;;;;;;4735650;28;5764097;-67
2021/01/09 07:16:16;;;;;;;1.67;0.60;;;1.10;89.90;;;;;;5066381;28;727439;-68
2021/01/09 07:18:46;;;;;;;1.73;0.60;;;1.20;89.80;;;;;;5072863;28;369910;-70
2021/01/09 07:21:12;;;;;;;1.33;0.52;;;1.10;89.80;;;;;;4979804;28;1336920;-72
2021/01/09 07:23:38;;;;;;;1.92;0.80;;;1.10;89.80;;;;;;4830905;28;7222891;-70
2021/01/09 07:26:07;;;;;;;1.70;0.77;;;1.10;89.60;;;;;;4870648;28;5238213;-71
2021/01/09 07:28:35;;;;;;;2.80;1.00;;;1.10;89.70;;;;;;5084384;28;782082;-67
2021/01/09 07:31:03;;;;;;;2.23;0.67;;;1.10;89.80;;;;;;4790129;28;8255331;-68
2021/01/09 07:33:41;;;;;;;2.42;1.08;;;1.10;89.80;;;;;;4897112;28;1948311;-69
2021/01/09 07:36:07;;;;;;;1.85;0.70;;;1.10;89.90;;;;;;4944395;28;3036388;-69
2021/01/09 07:38:33;;;;;;;2.75;0.70;;;1.10;89.90;;;;;;4025812;28;14698837;-69
2021/01/09 07:41:05;;;;;;;4.47;1.42;;;1.00;89.80;;;;;;5017583;28;1627902;-69
2021/01/09 07:43:47;;;;;;;3.15;0.90;;;1.10;89.80;;;;;;5105621;28;106197;-69
2021/01/09 07:46:28;;;;;;;1.40;0.50;;;1.00;89.80;;;;;;5111953;27;190433;-69
2021/01/09 07:48:58;;;;;;;2.47;0.80;;;1.00;89.80;;;;;;5082917;28;497665;-67
2021/01/09 07:51:48;;;;;;;1.42;0.90;;;1.00;89.80;;;;;;4938290;28;4116244;-67
2021/01/09 07:54:39;;;;;;;2.95;0.85;;;1.00;89.80;;;;;;4881345;28;3397013;-69
2021/01/09 07:57:18;;;;;;;9.43;1.10;;;1.10;89.90;;;;;;3783364;28;23264665;-69
2021/01/09 08:00:07;;;;;;;2.78;1.17;;;1.10;90.00;;;;;;5087837;28;293141;-66
2021/01/09 08:02:38;;;;;;;1.73;0.70;;;1.10;89.90;;;;;;5108647;28;139239;-65
2021/01/09 08:05:14;;;;;;;2.78;1.05;;;1.10;89.90;;;;;;5118541;28;20051;-67
2021/01/09 08:07:54;;;;;;;3.00;0.68;;;1.10;89.90;;;;;;5117157;28;20122;-65
2021/01/09 08:10:20;;;;;;;2.42;0.63;;;1.10;89.80;;;;;;5117111;28;20027;-65
2021/01/09 08:12:51;;;;;;;1.70;0.63;;;1.10;89.80;;;;;;5106900;28;297240;-70
2021/01/09 08:15:18;;;;;;;1.80;0.50;;;1.20;89.80;;;;;;5101583;28;391919;-69
2021/01/09 08:17:44;;;;;;;2.60;0.80;;;1.20;89.80;;;;;;4914233;28;4518727;-68
2021/01/09 08:20:12;;;;;;;1.60;0.70;;;1.20;89.70;;;;;;5112959;28;108180;-69
2021/01/09 08:22:50;;;;;;;1.85;0.60;;;1.20;89.80;;;;;;4635627;28;12928002;-76
2021/01/09 08:25:16;;;;;;;1.60;0.60;;;1.20;89.70;;;;;;5033497;28;1524912;-77
2021/01/09 08:27:43;;;;;;;3.15;0.80;;;1.20;89.60;;;;;;5116838;28;20042;-72
2021/01/09 08:30:12;;;;;;;1.27;0.50;;;1.10;89.60;;;;;;5103781;28;300412;-72
2021/01/09 08:32:38;;;;;;;1.63;0.70;;;1.10;89.60;;;;;;5018622;28;2321313;-69
2021/01/09 08:35:04;;;;;;;1.95;0.60;;;1.10;89.50;;;;;;5117927;28;20024;-72
2021/01/09 08:37:30;;;;;;;1.88;0.75;;;1.10;89.60;;;;;;5116658;28;20131;-70
2021/01/09 08:39:56;;;;;;;1.67;0.60;;;1.10;89.60;;;;;;4014357;27;15181421;-70
2021/01/09 08:42:22;;;;;;;2.03;0.40;;;1.10;89.60;;;;;;5116980;28;35320;-69
2021/01/09 08:44:49;;;;;;;1.30;0.55;;;1.10;89.70;;;;;;3529888;28;38267275;-69
2021/01/09 08:47:16;;;;;;;1.65;0.60;;;1.10;89.80;;;;;;5114220;28;64840;-70
2021/01/09 08:49:44;;;;;;;2.30;0.93;;;1.10;89.90;;;;;;5116518;28;20043;-70
2021/01/09 08:52:11;;;;;;;2.97;0.98;;;1.10;89.90;;;;;;5110577;28;159624;-67
